Time;durP1;ratioP1;P1;durP2;ratioP2;P2;SDS_P1;SDS_P2;PMS_P1;PMS_P2;Temp;Humidity;BMP_temperature;BMP_pressure;BME280_temperature;BME280_humidity;BME280_pressure;Samples;Min_cycle;Max_cycle;Signal;HPM_P1;HPM_P2
2021/10/28 00:13:45;;;;;;;6.50;5.03;;;;;;;-138.14;100.00;63448.66;4991062;28;20643;-67
2021/10/28 00:16:23;;;;;;;6.07;4.83;;;;;;;-138.14;100.00;63448.66;4957595;28;20316;-67
2021/10/28 00:18:59;;;;;;;5.87;4.67;;;;;;;-138.14;100.00;63448.66;4974393;28;20636;-69
2021/10/28 00:21:25;;;;;;;7.00;5.00;;;;;;;-138.14;100.00;63448.66;4990492;28;20668;-68
2021/10/28 00:23:51;;;;;;;7.97;4.93;;;;;;;-138.14;100.00;63448.66;4992197;28;20190;-67
2021/10/28 00:26:19;;;;;;;6.50;4.80;;;;;;;-138.14;100.00;63448.66;4973963;28;20221;-67
2021/10/28 00:28:47;;;;;;;5.97;5.03;;;;;;;-138.14;100.00;63448.66;4991940;28;20189;-68
2021/10/28 00:31:12;;;;;;;6.30;5.10;;;;;;;-138.14;100.00;63448.66;4990490;28;20356;-68
2021/10/28 00:33:39;;;;;;;6.97;5.13;;;;;;;-138.14;100.00;63448.66;4990957;28;20182;-68
2021/10/28 00:36:06;;;;;;;5.57;4.93;;;;;;;-138.14;100.00;63448.66;4974809;28;20329;-68
2021/10/28 00:38:35;;;;;;;6.20;5.03;;;;;;;-138.14;100.00;63448.66;4977436;28;20185;-68
2021/10/28 00:41:03;;;;;;;8.03;5.00;;;;;;;-138.14;100.00;63448.66;5010434;28;20252;-69
2021/10/28 00:43:29;;;;;;;6.93;4.80;;;;;;;-138.14;100.00;63448.66;5001189;28;20196;-67
2021/10/28 00:45:57;;;;;;;5.93;5.07;;;;;;;-138.14;100.00;63448.66;5010298;28;20220;-68
2021/10/28 00:48:23;;;;;;;10.20;4.83;;;;;;;-138.14;100.00;63448.66;4977973;28;20185;-68
2021/10/28 00:50:53;;;;;;;6.77;4.67;;;;;;;-138.14;100.00;63448.66;5010872;28;20698;-68
2021/10/28 00:53:22;;;;;;;7.23;5.07;;;;;;;-138.14;100.00;63448.66;4977905;28;20575;-68
2021/10/28 00:55:51;;;;;;;7.53;5.43;;;;;;;-138.14;100.00;63448.66;4977519;28;20221;-68
2021/10/28 00:58:23;;;;;;;7.57;5.30;;;;;;;-138.14;100.00;63448.66;4978015;28;20185;-68
2021/10/28 01:00:49;;;;;;;8.57;4.97;;;;;;;-138.14;100.00;63448.66;4995270;28;20240;-68
2021/10/28 01:03:15;;;;;;;5.40;4.97;;;;;;;-138.14;100.00;63448.66;4981267;28;20521;-69
2021/10/28 01:05:41;;;;;;;5.63;5.00;;;;;;;-138.14;100.00;63448.66;5013878;28;20228;-69
2021/10/28 01:08:07;;;;;;;6.53;5.10;;;;;;;-138.14;100.00;63448.66;4998016;28;20201;-66
2021/10/28 01:10:32;;;;;;;6.57;5.13;;;;;;;-138.14;100.00;63448.66;5005876;28;20228;-70
2021/10/28 01:13:00;;;;;;;6.63;5.07;;;;;;;-138.14;100.00;63448.66;4975841;28;20203;-67
2021/10/28 01:15:26;;;;;;;6.87;4.90;;;;;;;-138.14;100.00;63448.66;4996784;28;20232;-68
2021/10/28 01:17:57;;;;;;;6.97;4.90;;;;;;;-138.14;100.00;63448.66;4997439;28;20568;-67
2021/10/28 01:20:25;;;;;;;7.20;4.43;;;;;;;-138.14;100.00;63448.66;5013014;28;20225;-67
2021/10/28 01:22:50;;;;;;;4.80;4.30;;;;;;;-138.14;100.00;63448.66;4980865;28;20607;-67
2021/10/28 01:25:16;;;;;;;6.60;4.40;;;;;;;-138.14;100.00;63448.66;5013741;28;20681;-68
2021/10/28 01:27:42;;;;;;;5.00;4.57;;;;;;;-138.14;100.00;63448.66;5014549;28;20250;-67
2021/10/28 01:30:07;;;;;;;6.60;5.50;;;;;;;-138.14;100.00;63448.66;5014070;28;20268;-68
2021/10/28 01:32:33;;;;;;;6.27;4.87;;;;;;;-138.14;100.00;63448.66;5014107;28;20263;-67
2021/10/28 01:35:03;;;;;;;7.50;5.00;;;;;;;-138.14;100.00;63448.66;5013852;28;20181;-67
2021/10/28 01:37:29;;;;;;;5.37;4.57;;;;;;;-138.14;100.00;63448.66;5013585;28;20337;-69
2021/10/28 01:39:54;;;;;;;5.67;4.90;;;;;;;-138.14;100.00;63448.66;4996533;28;20217;-69
2021/10/28 01:42:20;;;;;;;6.33;4.60;;;;;;;-138.14;100.00;63448.66;5013771;28;20251;-69
2021/10/28 01:44:46;;;;;;;9.00;5.13;;;;;;;-138.14;100.00;63448.66;4980071;28;20212;-69
2021/10/28 01:47:16;;;;;;;6.67;5.30;;;;;;;-138.14;100.00;63448.66;5013568;28;20236;-67
2021/10/28 01:49:42;;;;;;;5.50;5.00;;;;;;;-138.14;100.00;63448.66;4996810;28;20216;-68
2021/10/28 01:52:11;;;;;;;7.47;5.23;;;;;;;-138.14;100.00;63448.66;4980079;28;20225;-68
2021/10/28 01:54:36;;;;;;;5.70;5.20;;;;;;;-138.14;100.00;63448.66;4964037;28;20206;-68
2021/10/28 01:57:05;;;;;;;7.37;5.00;;;;;;;-138.14;100.00;63448.66;4995588;28;20233;-69
2021/10/28 01:59:33;;;;;;;8.57;5.43;;;;;;;-138.14;100.00;63448.66;5013909;28;20584;-68
2021/10/28 02:01:58;;;;;;;5.70;4.90;;;;;;;-138.14;100.00;63448.66;4980347;28;20610;-68
2021/10/28 02:04:24;;;;;;;7.93;5.30;;;;;;;-138.14;100.00;63448.66;5014351;28;20243;-69
2021/10/28 02:06:50;;;;;;;6.13;4.70;;;;;;;-138.14;100.00;63448.66;4980293;28;20217;-67
2021/10/28 02:09:17;;;;;;;6.30;5.30;;;;;;;-138.14;100.00;63448.66;5013859;28;20196;-68
2021/10/28 02:11:43;;;;;;;10.57;5.80;;;;;;;-138.14;100.00;63448.66;4964731;28;20209;-68
2021/10/28 02:14:08;;;;;;;6.17;4.53;;;;;;;-138.14;100.00;63448.66;4981980;28;20207;-69
2021/10/28 02:16:36;;;;;;;7.33;4.83;;;;;;;-138.14;100.00;63448.66;4963031;28;20228;-68
2021/10/28 02:19:04;;;;;;;5.80;4.80;;;;;;;-138.14;100.00;63448.66;4996448;28;20200;-68
2021/10/28 02:21:32;;;;;;;5.10;4.37;;;;;;;-138.14;100.00;63448.66;4979075;28;20729;-68
2021/10/28 02:23:58;;;;;;;5.97;4.13;;;;;;;-138.14;100.00;63448.66;4996428;28;20185;-67
2021/10/28 02:26:25;;;;;;;5.00;4.00;;;;;;;-138.14;100.00;63448.66;5012632;28;20233;-68
2021/10/28 02:28:56;;;;;;;4.47;3.70;;;;;;;-138.14;100.00;63448.66;4996028;28;20650;-68
2021/10/28 02:31:22;;;;;;;6.37;4.57;;;;;;;-138.14;100.00;63448.66;4995226;28;20307;-67
2021/10/28 02:33:47;;;;;;;5.20;4.70;;;;;;;-138.14;100.00;63448.66;4995936;28;20192;-68
2021/10/28 02:36:17;;;;;;;6.83;4.40;;;;;;;-138.14;100.00;63448.66;5012242;28;20303;-68
2021/10/28 02:38:43;;;;;;;5.77;4.40;;;;;;;-138.14;100.00;63448.66;4995846;28;20684;-68
2021/10/28 02:41:11;;;;;;;7.30;4.80;;;;;;;-138.14;100.00;63448.66;4994811;28;20237;-68
2021/10/28 02:43:37;;;;;;;6.90;4.70;;;;;;;-138.14;100.00;63448.66;5012880;28;20192;-68
2021/10/28 02:46:05;;;;;;;7.07;4.63;;;;;;;-138.14;100.00;63448.66;4994211;28;20225;-68
2021/10/28 02:48:31;;;;;;;5.83;4.93;;;;;;;-138.14;100.00;63448.66;5012879;28;20208;-68
2021/10/28 02:50:56;;;;;;;6.53;5.03;;;;;;;-138.14;100.00;63448.66;4995175;28;20221;-67
2021/10/28 02:53:22;;;;;;;7.40;5.27;;;;;;;-138.14;100.00;63448.66;4995364;28;20181;-68
2021/10/28 02:55:50;;;;;;;6.53;4.63;;;;;;;-138.14;100.00;63448.66;5012149;28;20649;-67
2021/10/28 02:58:17;;;;;;;6.13;5.33;;;;;;;-138.14;100.00;63448.66;4979500;28;20197;-67
2021/10/28 03:00:43;;;;;;;5.93;5.30;;;;;;;-138.14;100.00;63448.66;4994653;28;20319;-67
2021/10/28 03:03:09;;;;;;;5.93;4.87;;;;;;;-138.14;100.00;63448.66;5012556;28;20243;-67
2021/10/28 03:05:35;;;;;;;7.40;5.40;;;;;;;-138.14;100.00;63448.66;4994897;28;20221;-67
2021/10/28 03:08:00;;;;;;;6.23;5.00;;;;;;;-138.14;100.00;63448.66;4994912;28;20223;-69
2021/10/28 03:10:26;;;;;;;7.83;5.10;;;;;;;-138.14;100.00;63448.66;4994302;28;20236;-69
2021/10/28 03:12:53;;;;;;;6.30;5.23;;;;;;;-138.14;100.00;63448.66;5003115;28;20196;-69
2021/10/28 03:15:22;;;;;;;5.77;5.23;;;;;;;-138.14;100.00;63448.66;4994302;28;20173;-67
2021/10/28 03:25:39;;;;;;;6.93;6.27;;;;;;;-138.14;100.00;63448.66;4994265;28;20294;-67
2021/10/28 03:28:20;;;;;;;7.20;6.03;;;;;;;-138.14;100.00;63448.66;4996492;28;20188;-68
2021/10/28 03:30:49;;;;;;;7.27;6.03;;;;;;;-138.14;100.00;63448.66;4993996;28;20236;-68
2021/10/28 03:33:17;;;;;;;8.33;6.83;;;;;;;-138.14;100.00;63448.66;4994374;28;20560;-68
2021/10/28 03:35:46;;;;;;;9.90;7.80;;;;;;;-138.14;100.00;63448.66;5010992;28;20220;-68
2021/10/28 03:38:19;;;;;;;12.87;7.70;;;;;;;-138.14;100.00;63448.66;4978366;28;20654;-67
2021/10/28 03:41:34;;;;;;;8.40;7.27;;;;;;;-138.14;100.00;63448.66;4994553;28;20228;-68
2021/10/28 03:49:55;;;;;;;7.43;6.57;;;;;;;-138.14;100.00;63448.66;5010895;28;20184;-68
2021/10/28 04:08:56;;;;;;;7.60;6.80;;;;;;;-138.14;100.00;63448.66;4970485;28;20187;-68
2021/10/28 04:19:49;;;;;;;11.30;8.00;;;;;;;-138.14;100.00;63448.66;4993874;28;20184;-68
2021/10/28 04:30:39;;;;;;;10.27;7.93;;;;;;;-138.14;100.00;63448.66;5010925;28;20221;-68
2021/10/28 04:33:05;;;;;;;10.87;8.40;;;;;;;-138.14;100.00;63448.66;4977664;28;20259;-69
2021/10/28 04:35:30;;;;;;;13.40;9.87;;;;;;;-138.14;100.00;63448.66;4994309;28;20243;-69
2021/10/28 04:37:58;;;;;;;13.07;8.90;;;;;;;-138.14;100.00;63448.66;4997463;28;20227;-68
2021/10/28 04:40:26;;;;;;;12.67;9.33;;;;;;;-138.14;100.00;63448.66;4993034;28;20217;-68
2021/10/28 04:42:52;;;;;;;9.17;8.03;;;;;;;-138.14;100.00;63448.66;4989614;28;20227;-68
2021/10/28 04:45:17;;;;;;;12.23;8.20;;;;;;;-138.14;100.00;63448.66;4966571;28;20192;-68
2021/10/28 04:47:43;;;;;;;11.47;7.93;;;;;;;-138.14;100.00;63448.66;5003664;28;20201;-68
2021/10/28 04:50:09;;;;;;;10.97;8.60;;;;;;;-138.14;100.00;63448.66;5016003;28;20177;-69
2021/10/28 04:52:35;;;;;;;13.50;8.93;;;;;;;-138.14;100.00;63448.66;4981944;28;20284;-69
2021/10/28 04:55:00;;;;;;;13.07;9.83;;;;;;;-138.14;100.00;63448.66;5004330;28;20243;-68
2021/10/28 04:57:26;;;;;;;11.60;9.50;;;;;;;-138.14;100.00;63448.66;5014882;28;20228;-69
2021/10/28 04:59:54;;;;;;;12.30;9.47;;;;;;;-138.14;100.00;63448.66;4998065;28;20272;-69
2021/10/28 05:02:19;;;;;;;12.47;10.40;;;;;;;-138.14;100.00;63448.66;5014747;28;20232;-69
2021/10/28 05:04:48;;;;;;;13.17;9.60;;;;;;;-138.14;100.00;63448.66;4997496;28;20177;-68
2021/10/28 05:07:14;;;;;;;11.43;8.83;;;;;;;-138.14;100.00;63448.66;4980503;28;20233;-68
2021/10/28 05:09:43;;;;;;;13.97;10.43;;;;;;;-138.14;100.00;63448.66;4999092;28;20204;-67
2021/10/28 05:12:09;;;;;;;21.10;10.30;;;;;;;-138.14;100.00;63448.66;5014368;28;20229;-69
2021/10/28 05:14:34;;;;;;;12.17;9.57;;;;;;;-138.14;100.00;63448.66;4981116;28;20173;-68
2021/10/28 05:17:00;;;;;;;13.57;10.33;;;;;;;-138.14;100.00;63448.66;5015449;28;20252;-66
2021/10/28 05:19:28;;;;;;;13.33;10.50;;;;;;;-138.14;100.00;63448.66;4998458;28;20279;-69
2021/10/28 05:21:54;;;;;;;12.97;9.60;;;;;;;-138.14;100.00;63448.66;5015546;28;20274;-69
2021/10/28 05:24:19;;;;;;;15.20;10.83;;;;;;;-138.14;100.00;63448.66;5015446;28;20197;-71
2021/10/28 05:26:45;;;;;;;14.03;11.63;;;;;;;-138.14;100.00;63448.66;4997592;28;20233;-68
2021/10/28 05:29:11;;;;;;;18.77;12.30;;;;;;;-138.14;100.00;63448.66;5015738;28;20228;-68
2021/10/28 05:31:36;;;;;;;17.23;11.47;;;;;;;-138.14;100.00;63448.66;4981325;28;20224;-67
2021/10/28 05:34:01;;;;;;;14.27;10.60;;;;;;;-138.14;100.00;63448.66;5001364;28;20189;-66
2021/10/28 05:36:30;;;;;;;15.10;10.83;;;;;;;-138.14;100.00;63448.66;4996043;28;20737;-69
2021/10/28 05:38:55;;;;;;;15.47;11.20;;;;;;;-138.14;100.00;63448.66;4994290;28;20565;-68
2021/10/28 05:41:21;;;;;;;14.90;11.70;;;;;;;-138.14;100.00;63448.66;4998368;28;20212;-69
2021/10/28 05:43:46;;;;;;;17.70;11.67;;;;;;;-138.14;100.00;63448.66;5019421;28;20193;-68
2021/10/28 05:46:12;;;;;;;17.30;12.03;;;;;;;-138.14;100.00;63448.66;5004026;28;20229;-68
2021/10/28 05:48:37;;;;;;;14.70;12.30;;;;;;;-138.14;100.00;63448.66;4991024;28;20172;-69
2021/10/28 05:51:03;;;;;;;15.90;12.03;;;;;;;-138.14;100.00;63448.66;4990888;28;20232;-69
2021/10/28 05:53:31;;;;;;;15.63;12.33;;;;;;;-138.14;100.00;63448.66;5025619;28;20263;-69
2021/10/28 05:55:57;;;;;;;18.30;12.60;;;;;;;-138.14;100.00;63448.66;5006475;28;20719;-70
2021/10/28 05:58:26;;;;;;;14.97;11.90;;;;;;;-138.14;100.00;63448.66;5014174;28;20181;-69
2021/10/28 06:00:51;;;;;;;16.47;11.57;;;;;;;-138.14;100.00;63448.66;5013915;28;20228;-70
2021/10/28 06:03:19;;;;;;;17.10;12.40;;;;;;;-138.14;100.00;63448.66;5032219;28;20176;-69
2021/10/28 06:05:45;;;;;;;17.30;11.70;;;;;;;-138.14;100.00;63448.66;5030801;28;20657;-69
2021/10/28 06:08:10;;;;;;;20.27;13.93;;;;;;;-138.14;100.00;63448.66;5013897;28;20181;-69
2021/10/28 06:10:36;;;;;;;17.77;13.67;;;;;;;-138.14;100.00;63448.66;5012444;28;20216;-69
2021/10/28 06:13:03;;;;;;;21.17;13.47;;;;;;;-138.14;100.00;63448.66;5014376;28;20220;-70
2021/10/28 06:15:30;;;;;;;15.57;12.80;;;;;;;-138.14;100.00;63448.66;5001117;28;20725;-69
2021/10/28 06:17:59;;;;;;;21.33;14.37;;;;;;;-138.14;100.00;63448.66;4997372;28;20229;-70
2021/10/28 06:20:25;;;;;;;18.63;13.93;;;;;;;-138.14;100.00;63448.66;4996376;28;20205;-70
2021/10/28 06:22:50;;;;;;;20.93;14.60;;;;;;;-138.14;100.00;63448.66;4996686;28;20184;-67
2021/10/28 06:25:17;;;;;;;20.93;14.90;;;;;;;-138.14;100.00;63448.66;4963104;28;20181;-69
2021/10/28 06:27:44;;;;;;;23.30;14.60;;;;;;;-138.14;100.00;63448.66;4996457;28;20196;-69
2021/10/28 06:30:14;;;;;;;18.13;14.30;;;;;;;-138.14;100.00;63448.66;5012810;28;20181;-68
2021/10/28 06:32:49;;;;;;;23.43;15.97;;;;;;;-138.14;100.00;63448.66;4979788;28;20189;-69
2021/10/28 06:35:15;;;;;;;22.70;15.67;;;;;;;-138.14;100.00;63448.66;5012663;28;20575;-69
2021/10/28 06:37:46;;;;;;;20.97;14.63;;;;;;;-138.14;100.00;63448.66;5013439;28;20207;-68
2021/10/28 06:40:12;;;;;;;21.10;14.27;;;;;;;-138.14;100.00;63448.66;4996047;28;20205;-68
2021/10/28 06:42:37;;;;;;;19.97;13.63;;;;;;;-138.14;100.00;63448.66;5012872;28;20184;-69
2021/10/28 06:45:03;;;;;;;20.77;13.80;;;;;;;-138.14;100.00;63448.66;5012298;28;20185;-68
2021/10/28 06:47:29;;;;;;;16.60;13.50;;;;;;;-138.14;100.00;63448.66;5012931;28;20241;-68
2021/10/28 06:49:59;;;;;;;17.40;13.10;;;;;;;-138.14;100.00;63448.66;5013042;28;20658;-69
2021/10/28 06:52:34;;;;;;;15.00;12.37;;;;;;;-138.14;100.00;63448.66;4995312;28;20228;-69
2021/10/28 06:55:05;;;;;;;17.73;13.23;;;;;;;-138.14;100.00;63448.66;4981753;28;20208;-70
2021/10/28 07:02:45;;;;;;;21.33;14.23;;;;;;;-138.14;100.00;63448.66;5013087;28;20583;-69
2021/10/28 07:05:11;;;;;;;18.33;13.53;;;;;;;-138.14;100.00;63448.66;5012046;28;20635;-69
2021/10/28 07:07:37;;;;;;;18.77;12.30;;;;;;;-138.14;100.00;63448.66;5013184;28;20239;-68
2021/10/28 07:10:19;;;;;;;17.73;13.43;;;;;;;-138.14;100.00;63448.66;4979176;28;20232;-70
2021/10/28 07:12:54;;;;;;;21.27;14.27;;;;;;;-138.14;100.00;63448.66;5003085;28;20943;-69
2021/10/28 07:18:10;;;;;;;21.47;14.17;;;;;;;-138.14;100.00;63448.66;5013308;28;20205;-70
2021/10/28 07:58:45;;;;;;;20.53;16.37;;;;;;;-138.14;100.00;63448.66;4994111;28;20678;-70
2021/10/28 08:20:31;;;;;;;17.23;13.47;;;;;;;-138.14;100.00;63448.66;5010930;28;20204;-67
2021/10/28 08:28:54;;;;;;;14.83;11.77;;;;;;;-138.14;100.00;63448.66;4966590;28;20214;-68
2021/10/28 08:31:20;;;;;;;13.67;12.13;;;;;;;-138.14;100.00;63448.66;4993101;28;20764;-68
2021/10/28 08:33:47;;;;;;;14.57;12.13;;;;;;;-138.14;100.00;63448.66;5011436;28;20246;-68
2021/10/28 08:36:20;;;;;;;13.23;11.43;;;;;;;-138.14;100.00;63448.66;4976995;28;20233;-68
2021/10/28 08:38:45;;;;;;;12.10;10.80;;;;;;;-138.14;100.00;63448.66;5011482;28;20673;-69
2021/10/28 08:41:11;;;;;;;11.67;10.47;;;;;;;-138.14;100.00;63448.66;4993284;28;20221;-68
2021/10/28 08:43:43;;;;;;;11.17;10.07;;;;;;;-138.14;100.00;63448.66;5011284;28;20192;-68
2021/10/28 08:46:10;;;;;;;10.97;9.87;;;;;;;-138.14;100.00;63448.66;4977946;28;20225;-69
2021/10/28 08:48:46;;;;;;;11.07;9.43;;;;;;;-138.14;100.00;63448.66;4978317;28;20268;-69
2021/10/28 08:51:17;;;;;;;11.70;9.00;;;;;;;-138.14;100.00;63448.66;4994374;28;20662;-69
2021/10/28 08:56:45;;;;;;;9.93;8.93;;;;;;;-138.14;100.00;63448.66;4979229;28;20229;-68
2021/10/28 08:59:32;;;;;;;9.57;7.93;;;;;;;-138.14;100.00;63448.66;4997963;28;20186;-71
2021/10/28 09:24:42;;;;;;;6.20;5.63;;;;;;;-138.14;100.00;63448.66;4999112;28;20665;-70
2021/10/28 09:27:29;;;;;;;6.70;6.00;;;;;;;-138.14;100.00;63448.66;5013850;28;20225;-70
2021/10/28 09:32:40;;;;;;;7.80;6.00;;;;;;;-138.14;100.00;63448.66;5014321;28;20224;-70
2021/10/28 09:51:19;;;;;;;5.80;5.30;;;;;;;-138.14;100.00;63448.66;4996480;28;20279;-70
2021/10/28 09:59:29;;;;;;;5.30;4.80;;;;;;;-138.14;100.00;63448.66;5012936;28;20701;-71
2021/10/28 10:02:06;;;;;;;6.70;5.20;;;;;;;-138.14;100.00;63448.66;4996152;28;20233;-70
2021/10/28 10:04:32;;;;;;;5.93;5.40;;;;;;;-138.14;100.00;63448.66;5013175;28;20180;-69
2021/10/28 10:06:59;;;;;;;5.90;5.10;;;;;;;-138.14;100.00;63448.66;5007374;28;20726;-69
2021/10/28 10:09:28;;;;;;;8.47;5.60;;;;;;;-138.14;100.00;63448.66;4996181;28;20273;-70
2021/10/28 10:11:54;;;;;;;5.80;5.00;;;;;;;-138.14;100.00;63448.66;4999502;28;20224;-70
2021/10/28 10:14:22;;;;;;;5.50;4.93;;;;;;;-138.14;100.00;63448.66;4976437;28;20228;-70
2021/10/28 10:16:48;;;;;;;6.63;4.80;;;;;;;-138.14;100.00;63448.66;4993547;28;20232;-70
2021/10/28 10:19:17;;;;;;;5.87;4.87;;;;;;;-138.14;100.00;63448.66;4960082;28;20691;-70
2021/10/28 10:21:45;;;;;;;6.93;5.20;;;;;;;-138.14;100.00;63448.66;4992231;28;20264;-70
2021/10/28 10:24:29;;;;;;;5.67;5.03;;;;;;;-138.14;100.00;63448.66;4993893;28;20240;-69
2021/10/28 11:31:28;;;;;;;3.58;2.03;;;;;;;-138.14;100.00;63448.66;4981376;28;20646;-69
2021/10/28 13:35:19;;;;;;;1.25;1.15;;;;;;;-138.14;100.00;63448.66;4996713;28;20335;-70
2021/10/28 13:51:35;;;;;;;2.92;1.10;;;;;;;-138.14;100.00;63448.66;4991547;28;20706;-69
2021/10/28 15:28:43;;;;;;;2.97;1.20;;;;;;;-138.14;100.00;63448.66;4980973;28;20200;-69
2021/10/28 15:36:58;;;;;;;4.57;1.77;;;;;;;-138.14;100.00;63448.66;5016095;28;20223;-68
2021/10/28 15:53:01;;;;;;;5.33;2.07;;;;;;;-138.14;100.00;63448.66;5016530;28;20230;-69
2021/10/28 16:22:43;;;;;;;4.53;1.90;;;;;;;-138.14;100.00;63448.66;4980415;28;20259;-68
2021/10/28 16:25:09;;;;;;;3.47;1.53;;;;;;;-138.14;100.00;63448.66;4993364;28;20267;-69
2021/10/28 16:27:35;;;;;;;3.20;1.70;;;;;;;-138.14;100.00;63448.66;5011374;28;20620;-68
2021/10/28 16:30:01;;;;;;;5.80;2.20;;;;;;;-138.14;100.00;63448.66;4994037;28;20211;-69
2021/10/28 16:32:26;;;;;;;2.33;1.50;;;;;;;-138.14;100.00;63448.66;5014293;28;20220;-69
2021/10/28 16:34:52;;;;;;;1.63;1.20;;;;;;;-138.14;100.00;63448.66;5015178;28;20208;-68
2021/10/28 16:37:18;;;;;;;2.57;1.30;;;;;;;-138.14;100.00;63448.66;5015944;28;20224;-68
2021/10/28 16:39:44;;;;;;;4.13;1.37;;;;;;;-138.14;100.00;63448.66;4997651;28;20188;-68
2021/10/28 16:42:10;;;;;;;2.00;1.20;;;;;;;-138.14;100.00;63448.66;5014750;28;20217;-68
2021/10/28 16:44:41;;;;;;;1.90;1.40;;;;;;;-138.14;100.00;63448.66;5005621;28;20188;-68
2021/10/28 16:47:07;;;;;;;3.37;1.60;;;;;;;-138.14;100.00;63448.66;5014917;28;20229;-69
2021/10/28 16:49:32;;;;;;;2.63;1.60;;;;;;;-138.14;100.00;63448.66;4997760;28;20184;-68
2021/10/28 16:51:58;;;;;;;4.13;1.63;;;;;;;-138.14;100.00;63448.66;4964944;28;20216;-68
2021/10/28 16:54:26;;;;;;;2.50;1.70;;;;;;;-138.14;100.00;63448.66;4998061;28;20634;-67
2021/10/28 16:56:52;;;;;;;2.20;1.53;;;;;;;-138.14;100.00;63448.66;5013986;28;20252;-68
2021/10/28 16:59:17;;;;;;;3.20;1.87;;;;;;;-138.14;100.00;63448.66;4981079;28;20189;-68
2021/10/28 17:01:43;;;;;;;2.40;1.70;;;;;;;-138.14;100.00;63448.66;5014421;28;20228;-69
2021/10/28 17:04:11;;;;;;;3.10;1.53;;;;;;;-138.14;100.00;63448.66;5012024;28;20184;-68
2021/10/28 17:06:39;;;;;;;2.50;1.30;;;;;;;-138.14;100.00;63448.66;4987508;28;20248;-67
2021/10/28 17:09:07;;;;;;;3.43;1.43;;;;;;;-138.14;100.00;63448.66;5011442;28;20189;-69
2021/10/28 17:11:33;;;;;;;1.90;1.47;;;;;;;-138.14;100.00;63448.66;5012767;28;20596;-70
2021/10/28 17:14:03;;;;;;;1.80;1.67;;;;;;;-138.14;100.00;63448.66;5014980;28;20193;-69
2021/10/28 17:16:32;;;;;;;3.50;1.80;;;;;;;-138.14;100.00;63448.66;4983012;28;20220;-69
2021/10/28 17:18:58;;;;;;;6.03;1.63;;;;;;;-138.14;100.00;63448.66;5018498;28;20558;-69
2021/10/28 17:21:24;;;;;;;3.07;2.33;;;;;;;-138.14;100.00;63448.66;5007099;28;20209;-68
2021/10/28 17:24:02;;;;;;;3.30;2.03;;;;;;;-138.14;100.00;63448.66;5004717;28;20270;-69
2021/10/28 17:26:28;;;;;;;2.27;2.07;;;;;;;-138.14;100.00;63448.66;4999018;28;20254;-70
2021/10/28 17:28:59;;;;;;;2.87;1.97;;;;;;;-138.14;100.00;63448.66;4984119;28;20652;-70
2021/10/28 17:31:25;;;;;;;2.20;2.00;;;;;;;-138.14;100.00;63448.66;5012012;28;20271;-69
2021/10/28 17:33:51;;;;;;;3.80;2.30;;;;;;;-138.14;100.00;63448.66;5001128;28;20665;-69
2021/10/28 17:36:22;;;;;;;3.17;2.30;;;;;;;-138.14;100.00;63448.66;5014058;28;20278;-68
2021/10/28 17:38:47;;;;;;;4.60;2.40;;;;;;;-138.14;100.00;63448.66;4977713;28;20562;-69
2021/10/28 17:41:13;;;;;;;2.57;2.03;;;;;;;-138.14;100.00;63448.66;5010831;28;20224;-68
2021/10/28 17:43:43;;;;;;;2.80;2.10;;;;;;;-138.14;100.00;63448.66;4988845;28;20188;-69
2021/10/28 17:46:12;;;;;;;4.73;2.50;;;;;;;-138.14;100.00;63448.66;4999232;28;20212;-69
2021/10/28 17:48:42;;;;;;;3.37;2.37;;;;;;;-138.14;100.00;63448.66;5016827;28;20288;-68
2021/10/28 17:51:11;;;;;;;2.47;2.27;;;;;;;-138.14;100.00;63448.66;5027612;28;20216;-69
2021/10/28 17:53:37;;;;;;;5.23;2.73;;;;;;;-138.14;100.00;63448.66;4982001;28;20193;-69
2021/10/28 17:56:03;;;;;;;4.43;2.50;;;;;;;-138.14;100.00;63448.66;4979174;28;20335;-68
2021/10/28 17:58:31;;;;;;;3.20;2.63;;;;;;;-138.14;100.00;63448.66;4997964;28;20193;-68
2021/10/28 18:00:57;;;;;;;4.00;2.67;;;;;;;-138.14;100.00;63448.66;5005957;28;20235;-70
2021/10/28 18:03:27;;;;;;;2.83;2.30;;;;;;;-138.14;100.00;63448.66;5003601;28;20200;-69
2021/10/28 18:05:52;;;;;;;3.73;2.63;;;;;;;-138.14;100.00;63448.66;5014498;28;20231;-70
2021/10/28 18:08:18;;;;;;;4.07;2.70;;;;;;;-138.14;100.00;63448.66;5015084;28;20189;-70
2021/10/28 18:10:45;;;;;;;4.47;2.80;;;;;;;-138.14;100.00;63448.66;4978746;28;20217;-67
2021/10/28 18:13:12;;;;;;;2.80;2.50;;;;;;;-138.14;100.00;63448.66;4984140;28;20191;-68
2021/10/28 18:15:41;;;;;;;3.00;2.57;;;;;;;-138.14;100.00;63448.66;5001864;28;20620;-69
2021/10/28 18:18:07;;;;;;;3.40;2.90;;;;;;;-138.14;100.00;63448.66;4998343;28;20279;-70
2021/10/28 18:20:35;;;;;;;3.47;2.60;;;;;;;-138.14;100.00;63448.66;4990493;28;20231;-70
2021/10/28 18:23:00;;;;;;;5.80;2.60;;;;;;;-138.14;100.00;63448.66;5014563;28;20188;-69
2021/10/28 18:25:26;;;;;;;3.40;2.53;;;;;;;-138.14;100.00;63448.66;5013834;28;20246;-69
2021/10/28 18:27:56;;;;;;;3.20;2.70;;;;;;;-138.14;100.00;63448.66;5014495;28;20212;-69
2021/10/28 18:30:23;;;;;;;4.80;2.87;;;;;;;-138.14;100.00;63448.66;5014488;28;20192;-69
2021/10/28 18:32:49;;;;;;;3.97;2.60;;;;;;;-138.14;100.00;63448.66;5032952;28;20650;-68
2021/10/28 18:35:17;;;;;;;4.47;2.70;;;;;;;-138.14;100.00;63448.66;4998131;28;20188;-69
2021/10/28 18:37:42;;;;;;;3.57;2.83;;;;;;;-138.14;100.00;63448.66;5001612;28;20291;-69
2021/10/28 18:40:09;;;;;;;3.70;3.10;;;;;;;-138.14;100.00;63448.66;4978995;28;20327;-70
2021/10/28 18:42:35;;;;;;;4.50;3.53;;;;;;;-138.14;100.00;63448.66;5013104;28;20212;-68
2021/10/28 18:45:03;;;;;;;5.37;3.50;;;;;;;-138.14;100.00;63448.66;4979006;28;20189;-69
2021/10/28 18:47:31;;;;;;;5.27;4.60;;;;;;;-138.14;100.00;63448.66;5012816;28;20228;-70
2021/10/28 18:49:57;;;;;;;6.23;4.07;;;;;;;-138.14;100.00;63448.66;4963006;28;20181;-69
2021/10/28 18:52:22;;;;;;;6.23;4.43;;;;;;;-138.14;100.00;63448.66;4994968;28;20352;-69
2021/10/28 18:54:50;;;;;;;4.80;4.30;;;;;;;-138.14;100.00;63448.66;5011818;28;20185;-69
2021/10/28 18:57:17;;;;;;;5.27;4.30;;;;;;;-138.14;100.00;63448.66;5012457;28;20245;-69
2021/10/28 18:59:43;;;;;;;4.90;4.40;;;;;;;-138.14;100.00;63448.66;5013156;28;20189;-69
2021/10/28 19:02:09;;;;;;;5.03;4.07;;;;;;;-138.14;100.00;63448.66;4978593;28;20235;-67
2021/10/28 19:04:35;;;;;;;4.57;4.17;;;;;;;-138.14;100.00;63448.66;5012492;28;20191;-69
2021/10/28 19:07:01;;;;;;;5.10;4.60;;;;;;;-138.14;100.00;63448.66;4994721;28;20232;-69
2021/10/28 19:09:30;;;;;;;5.67;4.47;;;;;;;-138.14;100.00;63448.66;4995492;28;20724;-69
2021/10/28 19:11:55;;;;;;;6.33;4.40;;;;;;;-138.14;100.00;63448.66;5011969;28;20239;-69
2021/10/28 19:14:21;;;;;;;5.60;4.70;;;;;;;-138.14;100.00;63448.66;5012787;28;20654;-70
2021/10/28 19:16:49;;;;;;;5.40;4.57;;;;;;;-138.14;100.00;63448.66;4994446;28;20288;-70
2021/10/28 19:19:14;;;;;;;5.97;4.33;;;;;;;-138.14;100.00;63448.66;4963788;28;20189;-70
2021/10/28 19:21:43;;;;;;;6.60;4.80;;;;;;;-138.14;100.00;63448.66;4994353;28;20225;-68
2021/10/28 19:24:09;;;;;;;5.87;4.87;;;;;;;-138.14;100.00;63448.66;5012292;28;20177;-69
2021/10/28 19:26:35;;;;;;;6.67;5.10;;;;;;;-138.14;100.00;63448.66;5011447;28;20615;-69
2021/10/28 19:29:03;;;;;;;5.23;3.83;;;;;;;-138.14;100.00;63448.66;5012542;28;20185;-69
2021/10/28 19:31:32;;;;;;;5.30;4.40;;;;;;;-138.14;100.00;63448.66;4984104;28;20235;-69
2021/10/28 19:34:00;;;;;;;4.50;4.00;;;;;;;-138.14;100.00;63448.66;5024546;28;20192;-70
2021/10/28 19:46:45;;;;;;;6.33;4.87;;;;;;;-138.14;100.00;63448.66;4996573;28;20232;-69
2021/10/28 19:49:10;;;;;;;4.90;4.40;;;;;;;-138.14;100.00;63448.66;4995027;28;20662;-68
2021/10/28 19:51:36;;;;;;;5.13;4.50;;;;;;;-138.14;100.00;63448.66;4994213;28;20217;-69
2021/10/28 19:54:03;;;;;;;6.60;4.23;;;;;;;-138.14;100.00;63448.66;4978826;28;20192;-69
2021/10/28 19:56:28;;;;;;;5.27;4.47;;;;;;;-138.14;100.00;63448.66;5010910;28;20256;-68
2021/10/28 19:59:00;;;;;;;5.87;4.30;;;;;;;-138.14;100.00;63448.66;4973260;28;20185;-70